Time;durP1;ratioP1;P1;durP2;ratioP2;P2;SDS_P1;SDS_P2;PMS_P1;PMS_P2;Temp;Humidity;BMP_temperature;BMP_pressure;BME280_temperature;BME280_humidity;BME280_pressure;Samples;Min_cycle;Max_cycle;Signal;HPM_P1;HPM_P2
2022/03/03 00:00:13;;;;;;;27.70;13.50;;;;;;;0.26;72.11;101806.63;4996804;28;20036;-76
2022/03/03 00:02:39;;;;;;;26.10;13.63;;;;;;;0.23;71.90;101808.47;4983513;28;20121;-76
2022/03/03 00:05:04;;;;;;;31.38;14.02;;;;;;;0.26;71.02;101808.34;4972319;28;20303;-76
2022/03/03 00:07:30;;;;;;;27.33;13.85;;;;;;;0.23;70.93;101805.91;4999706;28;20440;-77
2022/03/03 00:09:55;;;;;;;25.83;12.82;;;;;;;0.18;70.73;101814.59;4994130;28;20035;-75
2022/03/03 00:12:21;;;;;;;25.85;14.25;;;;;;;0.16;71.17;101818.13;4980619;28;20049;-76
2022/03/03 00:14:46;;;;;;;27.83;13.13;;;;;;;0.10;71.00;101815.84;4987455;28;20029;-76
2022/03/03 00:17:12;;;;;;;25.42;12.80;;;;;;;0.03;71.50;101807.59;4987249;28;20046;-76
2022/03/03 00:19:38;;;;;;;24.60;12.85;;;;;;;-0.01;71.19;101804.34;4989723;28;20041;-77
2022/03/03 00:22:04;;;;;;;27.52;13.02;;;;;;;-0.04;71.40;101803.63;5001414;28;20034;-76
2022/03/03 00:24:29;;;;;;;30.48;12.18;;;;;;;-0.08;71.00;101807.19;4999608;28;20136;-76
2022/03/03 00:26:55;;;;;;;23.88;11.65;;;;;;;-0.12;71.26;101800.56;4979932;28;20500;-76
2022/03/03 00:29:20;;;;;;;25.58;12.73;;;;;;;-0.15;71.35;101795.59;4998006;28;20064;-76
2022/03/03 00:31:46;;;;;;;23.92;12.65;;;;;;;-0.16;71.37;101794.75;5001706;28;20045;-76
2022/03/03 00:34:12;;;;;;;29.05;13.32;;;;;;;-0.17;71.29;101797.38;5003474;28;20045;-78
2022/03/03 00:36:37;;;;;;;32.92;14.30;;;;;;;-0.21;72.02;101792.41;5002945;28;20048;-76
2022/03/03 00:39:03;;;;;;;28.13;14.07;;;;;;;-0.21;72.45;101789.88;4984628;28;20030;-76
2022/03/03 00:41:29;;;;;;;26.25;13.18;;;;;;;-0.22;72.58;101793.28;4982865;28;20523;-76
2022/03/03 00:43:55;;;;;;;33.70;15.02;;;;;;;-0.22;72.60;101785.63;4993152;28;20042;-76
2022/03/03 00:46:21;;;;;;;23.52;13.35;;;;;;;-0.24;72.79;101784.88;4984810;28;20515;-76
2022/03/03 00:48:46;;;;;;;25.85;12.77;;;;;;;-0.30;73.14;101782.59;4981921;28;20038;-76
2022/03/03 00:51:12;;;;;;;23.42;12.63;;;;;;;-0.33;72.99;101782.69;5001039;28;20081;-76
2022/03/03 00:53:38;;;;;;;27.02;13.05;;;;;;;-0.35;72.74;101776.00;5011462;23;20057;-70
2022/03/03 00:56:04;;;;;;;30.05;13.90;;;;;;;-0.35;72.81;101776.84;5021143;28;20032;-70
2022/03/03 00:58:29;;;;;;;28.60;13.48;;;;;;;-0.33;73.17;101779.31;5011570;28;20033;-70
2022/03/03 01:00:55;;;;;;;31.58;13.63;;;;;;;-0.33;73.27;101772.50;5015818;28;20049;-70
2022/03/03 01:03:21;;;;;;;25.08;12.90;;;;;;;-0.33;73.54;101781.88;5006416;28;20045;-70
2022/03/03 01:05:46;;;;;;;28.25;13.90;;;;;;;-0.35;73.29;101781.94;5002734;28;20113;-70
2022/03/03 01:08:13;;;;;;;28.90;13.73;;;;;;;-0.38;73.09;101783.78;5009740;28;20034;-70
2022/03/03 01:10:39;;;;;;;27.40;14.13;;;;;;;-0.44;73.12;101778.03;5010036;28;20081;-70
2022/03/03 01:13:05;;;;;;;30.92;14.48;;;;;;;-0.48;72.88;101785.84;5006224;28;20080;-70
2022/03/03 01:15:31;;;;;;;34.30;14.32;;;;;;;-0.50;73.29;101777.44;4990291;28;20120;-70
2022/03/03 01:17:56;;;;;;;27.33;14.52;;;;;;;-0.52;73.22;101771.59;5006073;28;20030;-70
2022/03/03 01:20:22;;;;;;;26.60;13.95;;;;;;;-0.53;72.95;101780.09;5002500;28;20064;-70
2022/03/03 01:22:47;;;;;;;30.50;14.05;;;;;;;-0.55;72.78;101764.06;5009245;28;20034;-70
2022/03/03 01:25:13;;;;;;;29.92;14.23;;;;;;;-0.54;73.02;101764.00;5008500;28;20060;-70
2022/03/03 01:27:39;;;;;;;23.95;12.77;;;;;;;-0.55;73.46;101771.69;5008992;28;20033;-70
2022/03/03 01:30:06;;;;;;;27.45;12.82;;;;;;;-0.57;73.16;101770.94;4992242;28;20124;-70
2022/03/03 01:32:31;;;;;;;29.40;14.00;;;;;;;-0.60;73.54;101770.16;5004142;28;20037;-70
2022/03/03 01:34:57;;;;;;;32.17;13.77;;;;;;;-0.65;73.76;101769.50;5003129;28;20440;-70
2022/03/03 01:37:23;;;;;;;26.75;13.32;;;;;;;-0.68;73.69;101777.28;5007922;28;20555;-70
2022/03/03 01:39:48;;;;;;;30.38;13.82;;;;;;;-0.72;73.93;101768.06;5003846;28;20057;-70
2022/03/03 01:42:15;;;;;;;31.60;14.13;;;;;;;-0.77;73.68;101767.44;5007410;28;20163;-70
2022/03/03 01:44:44;;;;;;;29.25;13.50;;;;;;;-0.80;73.68;101759.91;5006558;28;20179;-70
2022/03/03 01:47:25;;;;;;;25.08;13.60;;;;;;;-0.86;73.60;101752.50;5006998;28;20110;-70
2022/03/03 01:49:52;;;;;;;29.23;14.32;;;;;;;-0.87;73.50;101758.47;5007473;28;20050;-70
2022/03/03 01:52:19;;;;;;;29.55;13.93;;;;;;;-0.89;73.48;101762.81;4991936;28;20802;-70
2022/03/03 01:54:45;;;;;;;26.75;13.20;;;;;;;-0.90;73.87;101761.16;5006893;28;20038;-69
2022/03/03 01:57:11;;;;;;;30.50;13.55;;;;;;;-0.91;73.30;101757.78;4992363;28;20146;-69
2022/03/03 01:59:37;;;;;;;29.48;13.35;;;;;;;-0.94;73.55;101757.91;5006923;28;20086;-70
2022/03/03 02:02:05;;;;;;;30.50;14.25;;;;;;;-0.95;73.82;101747.78;4988780;28;20073;-70
2022/03/03 02:04:31;;;;;;;25.85;13.43;;;;;;;-0.99;74.11;101747.88;4989607;28;20307;-70
2022/03/03 02:06:57;;;;;;;26.02;13.07;;;;;;;-1.01;74.42;101738.66;5004406;28;20026;-70
2022/03/03 02:09:23;;;;;;;30.00;13.95;;;;;;;-1.03;74.18;101745.50;5004247;28;20037;-70
2022/03/03 02:11:49;;;;;;;24.45;13.43;;;;;;;-1.05;74.73;101743.03;5040674;23;20046;-74
2022/03/03 02:14:15;;;;;;;28.52;13.75;;;;;;;-1.05;74.38;101742.19;4990948;28;20455;-74
2022/03/03 02:16:40;;;;;;;31.15;14.50;;;;;;;-1.06;74.53;101743.91;5002914;28;20022;-74
2022/03/03 02:19:06;;;;;;;30.92;14.00;;;;;;;-1.07;73.98;101739.72;5013148;28;20033;-74
2022/03/03 02:21:32;;;;;;;27.90;14.02;;;;;;;-1.08;74.31;101740.59;4975128;28;20030;-74
2022/03/03 02:23:57;;;;;;;28.77;13.65;;;;;;;-1.09;74.07;101736.41;4979599;28;20033;-74
2022/03/03 02:26:24;;;;;;;25.58;13.82;;;;;;;-1.13;74.72;101734.84;5013281;28;20100;-73
2022/03/03 02:28:51;;;;;;;25.02;13.07;;;;;;;-1.17;74.93;101728.19;4992271;28;20032;-74
2022/03/03 02:31:19;;;;;;;28.80;13.75;;;;;;;-1.20;75.09;101726.59;5021434;28;20140;-74
2022/03/03 02:33:46;;;;;;;28.58;13.23;;;;;;;-1.22;74.92;101722.47;5010955;28;20041;-74
2022/03/03 02:36:22;;;;;;;28.50;13.98;;;;;;;-1.26;74.82;101719.22;5023472;28;20535;-74
2022/03/03 02:38:51;;;;;;;26.27;13.65;;;;;;;-1.27;74.78;101724.34;5012207;28;20033;-74
2022/03/03 02:41:18;;;;;;;30.75;14.82;;;;;;;-1.30;75.09;101715.13;5008855;28;20095;-74
2022/03/03 02:43:43;;;;;;;26.17;14.18;;;;;;;-1.30;74.81;101721.91;5007750;28;20121;-74
2022/03/03 02:46:09;;;;;;;27.85;14.45;;;;;;;-1.32;75.12;101716.03;4992759;28;20120;-74
2022/03/03 02:48:35;;;;;;;27.50;13.98;;;;;;;-1.33;75.02;101714.41;5009701;28;20092;-74
2022/03/03 02:51:00;;;;;;;30.95;14.55;;;;;;;-1.35;75.12;101713.63;5005602;28;20089;-75
2022/03/03 02:53:26;;;;;;;26.02;14.05;;;;;;;-1.38;75.51;101724.72;4991813;28;20398;-75
2022/03/03 02:55:52;;;;;;;25.55;13.10;;;;;;;-1.42;75.64;101720.66;5008065;28;20022;-75
2022/03/03 02:58:18;;;;;;;25.45;13.93;;;;;;;-1.47;76.04;101715.75;5011150;28;20124;-75
2022/03/03 03:00:44;;;;;;;28.23;14.10;;;;;;;-1.48;76.07;101718.34;5022015;28;20048;-75
2022/03/03 03:03:10;;;;;;;30.90;13.93;;;;;;;-1.52;75.86;101714.25;5006939;28;20052;-75
2022/03/03 03:05:36;;;;;;;33.03;14.75;;;;;;;-1.53;75.78;101713.41;5009638;28;20038;-75
2022/03/03 03:08:02;;;;;;;31.80;14.30;;;;;;;-1.55;76.01;101705.00;4991458;28;20029;-75
2022/03/03 03:10:28;;;;;;;27.20;13.68;;;;;;;-1.56;75.57;101708.44;5009419;28;20160;-75
2022/03/03 03:12:53;;;;;;;26.73;13.27;;;;;;;-1.58;75.83;101705.94;5009578;28;20502;-75
2022/03/03 03:15:19;;;;;;;29.15;15.82;;;;;;;-1.61;75.91;101692.50;5006340;28;20042;-75
2022/03/03 03:17:45;;;;;;;31.52;14.85;;;;;;;-1.63;75.98;101702.72;5008799;28;20083;-75
2022/03/03 03:20:11;;;;;;;31.85;14.15;;;;;;;-1.67;76.02;101700.38;4990802;28;20546;-75
2022/03/03 03:22:37;;;;;;;35.05;15.68;;;;;;;-1.69;76.19;101692.78;5008507;28;20037;-75
2022/03/03 03:25:05;;;;;;;27.67;13.85;;;;;;;-1.69;76.33;101697.06;5007304;28;20033;-75
2022/03/03 03:27:31;;;;;;;29.52;14.73;;;;;;;-1.71;76.10;101691.16;4975087;28;20060;-75
2022/03/03 03:29:56;;;;;;;26.42;13.68;;;;;;;-1.74;76.48;101694.66;5005410;28;20403;-75
2022/03/03 03:32:21;;;;;;;27.45;13.68;;;;;;;-1.79;76.71;101688.91;5004991;28;20254;-75
2022/03/03 03:34:47;;;;;;;29.75;14.63;;;;;;;-1.85;76.96;101694.19;4988623;28;20029;-75
2022/03/03 03:37:13;;;;;;;26.23;13.52;;;;;;;-1.90;77.50;101691.84;4990148;28;20029;-75
2022/03/03 03:39:38;;;;;;;30.98;14.65;;;;;;;-1.93;77.49;101691.94;5008656;28;20065;-75
2022/03/03 03:42:04;;;;;;;31.77;14.38;;;;;;;-1.95;77.64;101693.69;5006202;28;20036;-74
2022/03/03 03:44:30;;;;;;;28.20;15.00;;;;;;;-1.97;77.68;101690.38;5006867;28;20541;-75
2022/03/03 03:46:55;;;;;;;32.03;14.82;;;;;;;-1.99;77.68;101684.53;4990847;28;20137;-75
2022/03/03 03:49:20;;;;;;;30.92;15.27;;;;;;;-1.99;77.61;101690.44;4992477;28;20044;-75
2022/03/03 03:51:46;;;;;;;30.77;14.30;;;;;;;-1.98;77.61;101693.78;5020283;28;20034;-75
2022/03/03 03:54:11;;;;;;;30.90;14.35;;;;;;;-2.01;77.50;101688.84;4988505;28;20048;-75
2022/03/03 03:56:37;;;;;;;33.15;15.95;;;;;;;-2.03;77.71;101691.44;5008886;28;20049;-75
2022/03/03 03:59:02;;;;;;;28.42;13.57;;;;;;;-2.04;77.65;101683.84;4992289;28;20034;-74
2022/03/03 04:01:30;;;;;;;33.25;15.48;;;;;;;-2.04;77.99;101686.38;5012618;28;20541;-75
2022/03/03 04:03:56;;;;;;;33.35;14.40;;;;;;;-2.03;77.73;101690.59;5007974;28;20030;-75
2022/03/03 04:06:22;;;;;;;31.83;15.05;;;;;;;-2.05;77.52;101687.28;4991066;28;20034;-75
2022/03/03 04:08:47;;;;;;;30.83;14.70;;;;;;;-2.06;77.39;101681.34;5009644;28;20084;-75
2022/03/03 04:11:13;;;;;;;33.22;14.88;;;;;;;-2.07;77.19;101681.41;5007093;28;20337;-75
2022/03/03 04:13:39;;;;;;;31.88;15.40;;;;;;;-2.08;77.12;101672.13;5006245;28;20038;-74
2022/03/03 04:16:04;;;;;;;34.08;14.45;;;;;;;-2.12;77.65;101673.94;5018044;28;20420;-75
2022/03/03 04:18:30;;;;;;;30.75;14.85;;;;;;;-2.14;77.72;101662.19;5008774;28;20033;-75
2022/03/03 04:20:55;;;;;;;25.55;13.48;;;;;;;-2.19;78.10;101659.78;5023412;28;20045;-75
2022/03/03 04:23:20;;;;;;;29.90;15.07;;;;;;;-2.23;78.54;101666.69;5007513;28;20295;-75
2022/03/03 04:25:46;;;;;;;31.10;14.70;;;;;;;-2.26;78.73;101661.72;4992932;28;20034;-74
2022/03/03 04:28:11;;;;;;;27.02;14.07;;;;;;;-2.28;78.46;101660.94;5021901;28;20099;-75
2022/03/03 04:30:37;;;;;;;27.90;14.02;;;;;;;-2.29;78.67;101658.47;5025467;28;20324;-75
2022/03/03 04:33:03;;;;;;;30.75;15.20;;;;;;;-2.33;78.59;101652.66;4994909;28;20046;-74
2022/03/03 04:35:31;;;;;;;32.15;14.65;;;;;;;-2.33;78.65;101655.19;4996020;28;20038;-74
2022/03/03 04:37:56;;;;;;;34.33;15.07;;;;;;;-2.32;78.79;101651.75;5006430;28;20026;-74
2022/03/03 04:40:22;;;;;;;34.40;15.07;;;;;;;-2.33;78.51;101639.13;5012191;28;20026;-74
2022/03/03 04:42:50;;;;;;;35.20;15.05;;;;;;;-2.35;78.62;101639.16;5023180;28;20033;-74
2022/03/03 04:45:15;;;;;;;32.67;15.88;;;;;;;-2.38;78.62;101642.63;5008819;28;20045;-74
2022/03/03 04:47:41;;;;;;;32.35;15.18;;;;;;;-2.39;78.88;101645.25;4991803;28;20065;-74
2022/03/03 04:50:09;;;;;;;31.20;15.60;;;;;;;-2.39;78.67;101637.63;5012649;28;20038;-74
2022/03/03 04:52:35;;;;;;;29.42;14.02;;;;;;;-2.42;78.79;101637.72;5007865;28;20033;-74
2022/03/03 04:55:01;;;;;;;30.50;14.25;;;;;;;-2.44;78.97;101631.84;5008005;28;20149;-74
2022/03/03 04:57:27;;;;;;;32.78;14.90;;;;;;;-2.46;79.10;101626.81;5012823;28;20033;-74
2022/03/03 04:59:52;;;;;;;32.10;14.50;;;;;;;-2.47;79.05;101639.56;4995795;28;20446;-74
2022/03/03 05:02:18;;;;;;;35.63;15.77;;;;;;;-2.49;78.94;101636.25;4995316;28;20025;-74
2022/03/03 05:04:43;;;;;;;31.40;15.05;;;;;;;-2.51;79.16;101633.75;5011059;28;20040;-73
2022/03/03 05:07:09;;;;;;;29.30;13.68;;;;;;;-2.53;79.17;101625.38;4979639;28;20056;-74
2022/03/03 05:09:34;;;;;;;32.80;14.93;;;;;;;-2.56;79.18;101623.75;4993731;28;20042;-74
2022/03/03 05:12:00;;;;;;;34.38;14.63;;;;;;;-2.59;79.41;101616.25;5027397;28;20041;-74
2022/03/03 05:14:26;;;;;;;34.97;15.45;;;;;;;-2.60;79.53;101619.69;5009643;28;20108;-74
2022/03/03 05:16:52;;;;;;;34.35;15.70;;;;;;;-2.59;79.54;101620.50;5024773;28;20073;-74
2022/03/03 05:19:17;;;;;;;31.70;15.63;;;;;;;-2.60;79.58;101623.91;5013381;28;20466;-74
2022/03/03 05:21:43;;;;;;;34.08;16.38;;;;;;;-2.63;79.62;101624.03;4992921;28;20479;-73
2022/03/03 05:24:08;;;;;;;32.08;14.77;;;;;;;-2.65;79.81;101624.06;4997764;28;20026;-74
2022/03/03 05:26:34;;;;;;;32.13;14.90;;;;;;;-2.66;79.96;101622.41;4994616;28;20532;-73
2022/03/03 05:29:00;;;;;;;32.90;15.93;;;;;;;-2.68;79.88;101623.34;4991930;28;20080;-74
2022/03/03 05:31:25;;;;;;;30.02;15.18;;;;;;;-2.69;80.18;101630.13;5007069;28;20061;-73
2022/03/03 05:33:51;;;;;;;31.95;15.57;;;;;;;-2.73;79.85;101633.66;5013332;28;20029;-73
2022/03/03 05:36:17;;;;;;;33.22;15.88;;;;;;;-2.73;80.14;101633.66;5007880;28;20030;-74
2022/03/03 05:38:42;;;;;;;31.98;14.35;;;;;;;-2.75;80.16;101637.94;4977561;28;20041;-74
2022/03/03 05:41:08;;;;;;;33.78;15.85;;;;;;;-2.78;80.44;101636.34;5012776;28;20022;-73
2022/03/03 05:43:35;;;;;;;34.20;15.48;;;;;;;-2.79;80.42;101641.44;4993057;28;20037;-73
2022/03/03 05:46:00;;;;;;;34.97;15.13;;;;;;;-2.81;80.65;101643.22;4989839;28;20030;-73
2022/03/03 05:48:26;;;;;;;29.60;15.30;;;;;;;-2.83;80.47;101637.34;4998885;28;20038;-73
2022/03/03 05:50:52;;;;;;;27.77;15.18;;;;;;;-2.84;80.26;101630.63;5014643;28;20045;-73
2022/03/03 05:53:19;;;;;;;37.45;16.52;;;;;;;-2.86;80.14;101639.97;5002345;28;20033;-73
2022/03/03 05:55:49;;;;;;;31.40;15.52;;;;;;;-2.88;80.23;101641.75;4995125;28;20099;-73
2022/03/03 05:58:17;;;;;;;32.85;15.85;;;;;;;-2.94;80.47;101643.63;4995197;28;20029;-73
2022/03/03 06:00:48;;;;;;;34.95;15.98;;;;;;;-2.96;80.50;101642.84;5011845;28;20021;-73
2022/03/03 06:03:19;;;;;;;37.17;16.73;;;;;;;-2.98;80.74;101644.56;4994661;28;20041;-73
2022/03/03 06:05:53;;;;;;;33.00;15.77;;;;;;;-2.98;81.08;101646.28;4999938;28;20116;-73
2022/03/03 06:08:23;;;;;;;35.28;15.40;;;;;;;-2.99;81.14;101642.09;5010290;28;20518;-73
2022/03/03 06:10:53;;;;;;;37.65;15.63;;;;;;;-3.01;81.52;101639.59;5009389;28;20038;-73
2022/03/03 06:13:24;;;;;;;35.13;15.88;;;;;;;-3.02;81.67;101642.19;4991843;28;20029;-73
2022/03/03 06:15:52;;;;;;;37.60;16.25;;;;;;;-3.03;81.62;101645.59;4989417;28;20086;-73
2022/03/03 06:18:20;;;;;;;40.03;17.65;;;;;;;-3.06;81.43;101644.00;5006559;28;20450;-73
2022/03/03 06:20:47;;;;;;;44.58;17.48;;;;;;;-3.08;81.34;101647.47;5011959;28;20049;-73
2022/03/03 06:23:13;;;;;;;47.72;18.02;;;;;;;-3.11;81.52;101647.53;4991988;28;20442;-73
2022/03/03 06:25:39;;;;;;;45.70;17.42;;;;;;;-3.14;81.42;101651.84;5014152;28;20037;-73
2022/03/03 06:28:05;;;;;;;44.60;19.13;;;;;;;-3.16;81.30;101650.25;5006464;28;20103;-73
2022/03/03 06:30:32;;;;;;;36.13;17.33;;;;;;;-3.19;81.45;101646.06;5013700;28;20441;-73
2022/03/03 06:32:58;;;;;;;38.38;16.85;;;;;;;-3.18;81.53;101654.53;4990109;28;20029;-73
2022/03/03 06:35:23;;;;;;;38.30;17.60;;;;;;;-3.17;81.58;101653.63;5011570;28;20034;-73
2022/03/03 06:37:49;;;;;;;37.20;17.58;;;;;;;-3.17;81.72;101656.19;4974121;28;20072;-73
2022/03/03 06:40:14;;;;;;;42.30;16.52;;;;;;;-3.16;81.75;101656.13;5008793;28;20030;-74
2022/03/03 06:42:40;;;;;;;34.55;15.95;;;;;;;-3.17;81.78;101651.91;4975488;28;20440;-73
2022/03/03 06:45:05;;;;;;;33.72;16.67;;;;;;;-3.18;81.86;101652.81;5007546;28;20044;-73
2022/03/03 06:47:31;;;;;;;36.78;16.58;;;;;;;-3.17;81.68;101644.31;5007083;28;20046;-73
2022/03/03 06:49:56;;;;;;;40.40;17.80;;;;;;;-3.17;81.34;101648.56;5020777;28;20107;-73
2022/03/03 06:52:30;;;;;;;37.03;16.27;;;;;;;-3.18;81.63;101652.00;4990852;28;20026;-73
2022/03/03 06:54:59;;;;;;;36.22;16.70;;;;;;;-3.21;81.71;101652.91;5002641;28;20045;-73
2022/03/03 06:57:26;;;;;;;33.80;16.52;;;;;;;-3.21;82.12;101659.69;5004564;28;20033;-73
2022/03/03 06:59:53;;;;;;;38.65;16.92;;;;;;;-3.22;82.40;101656.31;5007141;28;20176;-73
2022/03/03 07:02:20;;;;;;;37.00;16.95;;;;;;;-3.23;82.47;101643.69;5010718;28;20033;-73
2022/03/03 07:04:48;;;;;;;35.00;16.92;;;;;;;-3.23;82.60;101649.56;4991564;28;20042;-73
2022/03/03 07:07:14;;;;;;;45.10;17.85;;;;;;;-3.20;82.67;101648.66;5003789;28;20038;-73
2022/03/03 07:09:39;;;;;;;39.03;17.17;;;;;;;-3.19;82.80;101657.94;5008545;28;20038;-73
2022/03/03 07:12:05;;;;;;;43.42;18.38;;;;;;;-3.18;82.76;101652.81;5002010;28;20057;-73
2022/03/03 07:14:32;;;;;;;35.35;17.67;;;;;;;-3.15;82.68;101652.69;4996540;28;20030;-73
2022/03/03 07:17:22;;;;;;;39.30;17.25;;;;;;;-3.11;82.39;101653.44;5014518;28;20029;-73
2022/03/03 07:19:57;;;;;;;40.83;18.10;;;;;;;-3.00;82.25;101642.97;5007019;28;20132;-73
2022/03/03 07:23:03;;;;;;;40.25;18.92;;;;;;;-2.76;81.97;101654.06;4988161;28;20140;-73
2022/03/03 07:25:38;;;;;;;43.63;18.75;;;;;;;-2.32;81.54;101656.84;5012393;28;20080;-74
2022/03/03 07:28:07;;;;;;;36.45;17.83;;;;;;;-1.76;80.10;101654.00;5008833;28;20025;-73
2022/03/03 07:30:39;;;;;;;39.08;17.83;;;;;;;-1.30;78.77;101654.03;5008162;28;20073;-74
2022/03/03 07:33:07;;;;;;;35.30;17.02;;;;;;;-0.82;76.99;101654.72;4991401;28;20033;-73
2022/03/03 07:35:34;;;;;;;33.35;16.00;;;;;;;-0.24;74.66;101654.03;4994423;28;20148;-74
2022/03/03 07:38:04;;;;;;;37.05;15.30;;;;;;;0.36;71.61;101639.50;5009532;28;20080;-74
2022/03/03 07:40:31;;;;;;;35.70;15.43;;;;;;;0.98;67.92;101644.31;5015046;28;20116;-74
2022/03/03 07:42:59;;;;;;;34.90;17.42;;;;;;;1.49;63.96;101636.72;5005545;28;20160;-74
2022/03/03 07:45:25;;;;;;;31.75;14.73;;;;;;;2.12;62.92;101631.75;5010865;28;20033;-73
2022/03/03 07:47:55;;;;;;;28.42;14.48;;;;;;;2.63;61.20;101628.22;5007403;28;20042;-74
2022/03/03 07:50:21;;;;;;;28.60;14.30;;;;;;;3.07;60.11;101640.28;4996690;28;20065;-74
2022/03/03 07:52:48;;;;;;;29.58;14.40;;;;;;;3.38;59.13;101641.91;4995585;28;20567;-74
2022/03/03 07:55:14;;;;;;;32.85;14.90;;;;;;;3.66;58.85;101638.56;4990013;28;20033;-74
2022/03/03 07:58:02;;;;;;;32.08;13.95;;;;;;;3.94;57.02;101644.63;4992254;28;20057;-73
2022/03/03 08:00:34;;;;;;;26.90;12.98;;;;;;;4.04;56.29;101638.00;5017219;28;20033;-73
2022/03/03 08:03:04;;;;;;;31.55;14.57;;;;;;;4.24;55.18;101644.50;4992824;28;20068;-73
2022/03/03 08:05:31;;;;;;;30.83;13.80;;;;;;;4.23;55.02;101650.56;4993479;28;20038;-73
2022/03/03 08:08:00;;;;;;;26.20;13.20;;;;;;;4.41;54.33;101652.94;4995831;28;20109;-73
2022/03/03 08:10:27;;;;;;;24.17;12.38;;;;;;;4.63;53.69;101650.66;5009723;28;20037;-73
2022/03/03 08:12:55;;;;;;;25.75;12.65;;;;;;;4.96;53.04;101639.16;5009854;28;20381;-73
2022/03/03 08:15:21;;;;;;;28.17;13.35;;;;;;;5.24;52.19;101637.38;4989075;28;20026;-74
2022/03/03 08:17:51;;;;;;;30.95;12.93;;;;;;;5.61;51.25;101651.19;5008787;28;20025;-74
2022/03/03 08:20:17;;;;;;;30.15;13.50;;;;;;;5.75;49.58;101641.72;4984575;28;20065;-73
2022/03/03 08:22:43;;;;;;;31.88;13.07;;;;;;;5.77;49.68;101642.44;4989230;28;20038;-74
2022/03/03 08:25:11;;;;;;;24.90;12.98;;;;;;;5.59;49.06;101650.44;4992228;23;1151914;-70
2022/03/03 08:27:38;;;;;;;24.83;11.45;;;;;;;6.10;48.12;101633.34;5037508;28;20084;-69
2022/03/03 08:30:06;;;;;;;30.48;13.07;;;;;;;6.50;47.24;101636.53;5042757;28;20091;-70
2022/03/03 08:32:36;;;;;;;25.33;12.32;;;;;;;6.67;47.45;101644.78;5026503;28;20038;-70
2022/03/03 08:35:13;;;;;;;30.80;13.48;;;;;;;6.52;47.44;101637.25;5020548;28;20381;-69
2022/03/03 08:37:43;;;;;;;26.15;12.02;;;;;;;6.74;47.07;101648.59;5007488;28;20064;-70
2022/03/03 08:40:14;;;;;;;26.20;12.90;;;;;;;6.71;46.16;101647.06;5010791;28;20024;-70
2022/03/03 08:42:46;;;;;;;25.15;11.90;;;;;;;6.76;45.10;101650.13;4984996;28;20034;-70
2022/03/03 08:45:12;;;;;;;28.43;12.27;;;;;;;6.69;45.75;101653.28;5013494;28;20071;-70
2022/03/03 08:47:41;;;;;;;25.50;12.32;;;;;;;7.02;45.42;101642.25;5011436;28;20148;-70
2022/03/03 08:50:13;;;;;;;33.20;13.15;;;;;;;7.34;45.54;101641.63;5012672;28;20042;-70
2022/03/03 08:52:42;;;;;;;28.20;12.35;;;;;;;7.66;44.54;101646.16;5017607;28;20132;-70
2022/03/03 08:55:09;;;;;;;24.73;12.43;;;;;;;7.50;43.34;101639.56;5003159;28;20038;-70
2022/03/03 08:57:36;;;;;;;23.38;12.48;;;;;;;7.83;43.91;101637.94;5027334;28;20029;-71
2022/03/03 09:00:05;;;;;;;22.05;11.60;;;;;;;7.89;44.03;101637.47;5027259;28;20038;-71
2022/03/03 09:02:31;;;;;;;22.58;11.55;;;;;;;7.96;42.77;101635.22;5023118;28;20095;-70
2022/03/03 09:04:57;;;;;;;24.98;12.45;;;;;;;8.27;42.63;101625.09;5025334;28;20426;-72
2022/03/03 09:07:23;;;;;;;22.58;11.60;;;;;;;8.17;42.11;101632.75;5019562;28;20116;-70
2022/03/03 09:09:48;;;;;;;23.15;11.57;;;;;;;8.29;42.35;101633.56;5009043;28;20037;-70
2022/03/03 09:12:14;;;;;;;24.23;12.25;;;;;;;8.33;42.89;101628.03;5023192;28;20029;-70
2022/03/03 09:14:40;;;;;;;22.20;11.73;;;;;;;8.17;43.13;101635.31;4989947;28;20459;-70
2022/03/03 09:17:05;;;;;;;22.17;12.45;;;;;;;8.34;41.97;101639.16;5022351;28;20592;-70
2022/03/03 09:19:31;;;;;;;23.80;12.02;;;;;;;8.45;42.49;101644.34;5013771;28;20025;-72
2022/03/03 09:21:56;;;;;;;22.70;11.93;;;;;;;8.50;43.18;101644.81;5013670;28;20480;-70
2022/03/03 09:24:23;;;;;;;29.10;12.38;;;;;;;8.53;43.58;101647.16;4994752;28;20041;-70
2022/03/03 09:26:50;;;;;;;24.52;12.30;;;;;;;8.50;43.25;101647.41;5019794;28;20678;-70
2022/03/03 09:29:17;;;;;;;25.58;11.43;;;;;;;7.95;42.56;101644.75;5020995;28;20373;-69
2022/03/03 09:31:44;;;;;;;25.90;12.75;;;;;;;7.89;43.90;101640.06;5026786;28;20056;-70
2022/03/03 09:34:10;;;;;;;24.30;12.10;;;;;;;7.83;44.92;101643.09;5005150;28;20560;-70
2022/03/03 09:36:36;;;;;;;25.35;11.70;;;;;;;7.57;44.55;101639.91;5006545;28;20025;-69
2022/03/03 09:39:02;;;;;;;21.38;11.45;;;;;;;7.45;45.05;101644.25;5034372;28;20030;-70
2022/03/03 09:41:27;;;;;;;24.92;11.80;;;;;;;7.36;45.22;101642.34;5026624;28;20027;-71
2022/03/03 09:43:53;;;;;;;25.65;12.73;;;;;;;7.30;46.15;101635.06;5031092;28;20032;-69
2022/03/03 09:46:21;;;;;;;22.38;11.05;;;;;;;7.46;45.66;101635.56;5023327;28;20549;-70
2022/03/03 09:48:47;;;;;;;24.92;12.57;;;;;;;7.46;44.28;101625.25;5033286;28;20049;-70
2022/03/03 09:51:13;;;;;;;29.77;13.40;;;;;;;7.12;44.57;101620.03;5034737;28;20041;-70
2022/03/03 09:53:42;;;;;;;30.20;12.63;;;;;;;7.24;44.03;101627.78;5015840;28;20025;-70
2022/03/03 09:56:08;;;;;;;23.13;11.98;;;;;;;7.22;44.09;101623.56;5030535;28;20033;-70
2022/03/03 09:58:34;;;;;;;22.85;11.98;;;;;;;7.33;44.86;101620.19;5023333;28;20091;-70
2022/03/03 10:00:59;;;;;;;27.00;12.15;;;;;;;7.22;43.96;101618.41;5011462;28;20033;-70
2022/03/03 10:03:32;;;;;;;23.67;12.32;;;;;;;7.34;44.85;101621.00;5013796;28;20041;-70
2022/03/03 10:06:00;;;;;;;24.48;12.45;;;;;;;7.31;45.50;101611.75;5035018;28;20033;-69
2022/03/03 10:08:26;;;;;;;24.05;12.02;;;;;;;7.36;44.33;101606.22;5017394;28;21354;-69
2022/03/03 10:10:55;;;;;;;24.50;13.45;;;;;;;7.19;44.56;101613.44;5035096;28;20038;-70
2022/03/03 10:13:21;;;;;;;22.58;12.40;;;;;;;7.15;44.94;101606.06;5047346;28;20025;-69
2022/03/03 10:15:53;;;;;;;30.33;12.32;;;;;;;7.10;44.37;101610.75;5036666;28;20037;-69
2022/03/03 10:18:20;;;;;;;34.75;16.88;;;;;;;6.95;46.30;101616.09;5013418;28;20063;-69
2022/03/03 10:20:55;;;;;;;44.42;16.50;;;;;;;7.13;45.00;101619.06;5020547;28;20038;-69
2022/03/03 10:23:30;;;;;;;45.00;17.48;;;;;;;7.19;45.60;101616.03;5023125;28;20033;-69
2022/03/03 10:25:58;;;;;;;25.77;13.10;;;;;;;7.20;45.42;101609.94;5004448;28;20461;-69
2022/03/03 10:28:29;;;;;;;25.35;13.25;;;;;;;7.36;44.87;101616.53;5016236;28;20113;-69
2022/03/03 10:31:04;;;;;;;43.22;17.92;;;;;;;7.36;45.84;101616.53;5001378;28;20083;-69
2022/03/03 10:33:38;;;;;;;30.13;13.50;;;;;;;7.43;47.68;101611.75;5020734;28;20167;-68
2022/03/03 10:36:31;;;;;;;24.83;13.02;;;;;;;7.51;46.87;101610.22;5003711;28;20475;-68
2022/03/03 10:38:59;;;;;;;24.60;11.30;;;;;;;7.53;46.97;101608.34;5025677;28;20037;-69
2022/03/03 10:41:43;;;;;;;23.77;12.23;;;;;;;7.72;46.07;101610.38;5000579;28;20068;-69
2022/03/03 10:44:12;;;;;;;23.50;12.23;;;;;;;7.78;45.61;101604.72;5020870;28;20025;-69
2022/03/03 10:46:58;;;;;;;26.42;13.27;;;;;;;7.92;44.68;101603.66;5004795;28;20048;-68
2022/03/03 10:49:25;;;;;;;28.35;12.20;;;;;;;7.87;44.42;101607.53;5019895;28;20034;-69
2022/03/03 10:51:51;;;;;;;23.30;12.55;;;;;;;7.83;45.07;101604.38;5025420;28;20127;-68
2022/03/03 10:54:17;;;;;;;26.02;12.80;;;;;;;8.09;44.60;101607.50;4989845;28;20662;-69
2022/03/03 10:56:45;;;;;;;25.77;13.07;;;;;;;8.07;44.56;101593.09;4985875;28;20107;-68
2022/03/03 10:59:17;;;;;;;21.10;12.13;;;;;;;8.02;44.62;101584.88;5003719;28;20184;-68
2022/03/03 11:01:44;;;;;;;19.45;12.15;;;;;;;8.05;44.11;101582.06;4993317;28;20427;-68
2022/03/03 11:04:21;;;;;;;23.35;12.07;;;;;;;8.26;44.37;101582.13;5012727;28;20029;-68
2022/03/03 11:06:52;;;;;;;21.85;11.38;;;;;;;8.35;43.35;101583.97;5012991;28;20033;-68
2022/03/03 11:09:18;;;;;;;22.77;12.40;;;;;;;8.37;42.66;101582.91;5024632;28;20414;-68
2022/03/03 11:11:45;;;;;;;25.02;12.38;;;;;;;8.55;41.63;101584.97;5001931;28;20029;-68